Time;durP1;ratioP1;P1;durP2;ratioP2;P2;SDS_P1;SDS_P2;PMS_P1;PMS_P2;Temp;Humidity;BMP_temperature;BMP_pressure;BME280_temperature;BME280_humidity;BME280_pressure;Samples;Min_cycle;Max_cycle;Signal;HPM_P1;HPM_P2
2022/05/14 00:00:52;;;;;;;;;;;11.50;86.20;;;;;;5073912;28;20070;-62
2022/05/14 00:03:18;;;;;;;;;;;11.50;86.00;;;;;;5077896;28;19934;-63
2022/05/14 00:05:44;;;;;;;;;;;11.40;86.90;;;;;;5076920;28;19970;-62
2022/05/14 00:08:10;;;;;;;;;;;11.40;87.20;;;;;;5084379;28;19928;-62
2022/05/14 00:13:20;;;;;;;;;;;11.30;86.60;;;;;;5076963;28;19967;-62
2022/05/14 00:15:46;;;;;;;;;;;11.30;86.10;;;;;;5071714;28;20011;-63
2022/05/14 00:18:12;;;;;;;;;;;11.30;87.40;;;;;;5074360;28;20009;-63
2022/05/14 00:20:38;;;;;;;;;;;11.30;87.10;;;;;;5081320;28;20379;-63
2022/05/14 00:23:04;;;;;;;;;;;11.30;87.40;;;;;;5075781;28;19966;-63
2022/05/14 00:25:30;;;;;;;;;;;11.30;87.60;;;;;;5068687;28;19928;-62
2022/05/14 00:27:55;;;;;;;;;;;11.20;87.30;;;;;;5082962;28;20327;-63
2022/05/14 00:30:23;;;;;;;;;;;11.20;87.00;;;;;;5081579;28;19928;-64
2022/05/14 00:32:48;;;;;;;;;;;11.20;87.30;;;;;;5078565;28;19924;-62
2022/05/14 00:35:14;;;;;;;;;;;11.30;88.00;;;;;;5077274;28;19928;-63
2022/05/14 00:37:40;;;;;;;;;;;11.40;87.50;;;;;;5082930;28;20022;-62
2022/05/14 00:40:07;;;;;;;;;;;11.40;88.00;;;;;;5087000;28;19970;-63
2022/05/14 00:42:33;;;;;;;;;;;11.30;88.00;;;;;;5075966;28;20012;-63
2022/05/14 00:44:58;;;;;;;;;;;11.30;87.30;;;;;;5066967;28;20553;-61
2022/05/14 00:47:25;;;;;;;;;;;11.30;88.00;;;;;;5074253;28;19924;-63
2022/05/14 00:49:51;;;;;;;;;;;11.30;87.30;;;;;;5078110;28;19928;-64
2022/05/14 00:52:18;;;;;;;;;;;11.20;87.50;;;;;;5069676;28;19921;-62
2022/05/14 00:54:48;;;;;;;;;;;11.30;88.20;;;;;;5073039;28;21769;-63
2022/05/14 00:57:15;;;;;;;;;;;11.20;88.30;;;;;;5085306;28;19963;-64
2022/05/14 00:59:41;;;;;;;;;;;11.30;87.90;;;;;;5083725;28;19979;-62
2022/05/14 01:02:07;;;;;;;;;;;11.30;88.20;;;;;;5079753;28;19979;-64
2022/05/14 01:04:33;;;;;;;;;;;11.40;88.00;;;;;;5079940;28;19924;-64
2022/05/14 01:07:01;;;;;;;;;;;11.40;88.20;;;;;;5066854;28;19924;-62
2022/05/14 01:09:26;;;;;;;;;;;11.40;87.80;;;;;;5071145;28;20306;-64
2022/05/14 01:11:54;;;;;;;;;;;11.40;87.90;;;;;;5071291;28;19973;-64
2022/05/14 01:14:21;;;;;;;;;;;11.30;88.00;;;;;;5065567;28;19943;-63
2022/05/14 01:16:46;;;;;;;;;;;11.40;88.00;;;;;;5067093;28;19924;-62
2022/05/14 01:19:12;;;;;;;;;;;11.40;87.60;;;;;;5067553;28;19977;-63
2022/05/14 01:21:52;;;;;;;;;;;11.40;88.10;;;;;;5063269;28;19951;-63
2022/05/14 01:27:07;;;;;;;;;;;11.40;87.60;;;;;;5066637;28;19921;-63
2022/05/14 01:29:34;;;;;;;;;;;11.40;87.50;;;;;;5071078;28;20379;-63
2022/05/14 01:32:00;;;;;;;;;;;11.50;87.40;;;;;;5069425;28;19925;-63
2022/05/14 01:34:33;;;;;;;;;;;11.50;87.20;;;;;;5064352;28;19931;-64
2022/05/14 01:36:59;;;;;;;;;;;11.50;87.70;;;;;;5067922;28;19938;-63
2022/05/14 01:39:25;;;;;;;;;;;11.50;87.20;;;;;;5065561;28;20015;-63
2022/05/14 01:41:51;;;;;;;;;;;11.50;88.20;;;;;;5068152;28;19931;-63
2022/05/14 01:44:17;;;;;;;;;;;11.50;87.60;;;;;;5071028;28;19921;-62
2022/05/14 01:46:43;;;;;;;;;;;11.50;87.40;;;;;;5066270;28;19921;-64
2022/05/14 01:49:08;;;;;;;;;;;11.50;88.20;;;;;;5067692;28;19970;-63
2022/05/14 01:51:34;;;;;;;;;;;11.50;88.70;;;;;;5061785;28;20348;-62
2022/05/14 01:53:59;;;;;;;;;;;11.50;88.10;;;;;;5070944;28;19924;-63
2022/05/14 01:56:25;;;;;;;;;;;11.40;87.10;;;;;;5086107;28;19920;-63
2022/05/14 01:58:51;;;;;;;;;;;11.40;87.80;;;;;;5087539;28;19920;-63
2022/05/14 02:01:18;;;;;;;;;;;11.40;87.80;;;;;;5085830;28;20252;-63
2022/05/14 02:03:46;;;;;;;;;;;11.40;87.80;;;;;;5087857;28;19920;-63
2022/05/14 02:06:12;;;;;;;;;;;11.30;88.00;;;;;;5078039;28;20434;-63
2022/05/14 02:08:38;;;;;;;;;;;11.30;88.70;;;;;;5085005;28;19939;-62
2022/05/14 02:11:03;;;;;;;;;;;11.20;89.30;;;;;;5083157;28;19924;-63
2022/05/14 02:13:29;;;;;;;;;;;11.20;90.00;;;;;;5072849;28;19990;-62
2022/05/14 02:15:54;;;;;;;;;;;11.20;89.70;;;;;;5080548;28;20007;-62
2022/05/14 02:18:20;;;;;;;;;;;11.10;90.20;;;;;;5090518;28;20311;-63
2022/05/14 02:20:46;;;;;;;;;;;11.10;90.60;;;;;;5079495;28;20015;-64
2022/05/14 02:23:12;;;;;;;;;;;11.00;90.50;;;;;;5076418;28;20605;-63
2022/05/14 02:25:38;;;;;;;;;;;11.00;90.50;;;;;;5086845;28;19920;-64
2022/05/14 02:28:03;;;;;;;;;;;11.00;91.00;;;;;;5081119;28;19970;-62
2022/05/14 02:30:29;;;;;;;;;;;10.90;90.90;;;;;;5087764;28;20372;-63
2022/05/14 02:32:54;;;;;;;;;;;11.00;90.90;;;;;;5086697;28;19927;-62
2022/05/14 02:35:20;;;;;;;;;;;10.90;90.90;;;;;;5076885;28;19934;-63
2022/05/14 02:37:45;;;;;;;;;;;10.90;91.40;;;;;;5085678;28;19924;-62
2022/05/14 02:40:11;;;;;;;;;;;10.90;91.30;;;;;;5078026;28;20375;-64
2022/05/14 02:42:37;;;;;;;;;;;10.90;91.80;;;;;;5085445;28;19921;-63
2022/05/14 02:45:02;;;;;;;;;;;10.80;91.30;;;;;;5086743;28;19927;-63
2022/05/14 02:47:30;;;;;;;;;;;10.90;92.40;;;;;;5084287;28;19931;-63
2022/05/14 02:49:56;;;;;;;;;;;10.80;91.90;;;;;;5077635;28;19920;-63
2022/05/14 02:52:23;;;;;;;;;;;10.80;92.00;;;;;;5078217;28;19927;-62
2022/05/14 02:54:49;;;;;;;;;;;10.80;91.60;;;;;;5074909;28;19974;-62
2022/05/14 02:57:14;;;;;;;;;;;10.80;92.10;;;;;;5083044;28;19920;-62
2022/05/14 02:59:40;;;;;;;;;;;10.80;92.30;;;;;;5078343;28;19935;-63
2022/05/14 03:02:06;;;;;;;;;;;10.70;92.60;;;;;;5078885;28;19921;-63
2022/05/14 03:04:32;;;;;;;;;;;10.80;92.30;;;;;;5091228;28;20430;-64
2022/05/14 03:06:58;;;;;;;;;;;10.70;92.70;;;;;;5089658;28;19927;-63
2022/05/14 03:09:24;;;;;;;;;;;10.70;92.90;;;;;;5072434;28;19920;-64
2022/05/14 03:11:50;;;;;;;;;;;10.70;93.00;;;;;;5079975;28;19936;-62
2022/05/14 03:14:16;;;;;;;;;;;10.60;92.90;;;;;;5084437;28;19928;-64
2022/05/14 03:16:42;;;;;;;;;;;10.60;93.20;;;;;;5077955;28;20395;-63
2022/05/14 03:19:07;;;;;;;;;;;10.60;92.60;;;;;;5083632;28;19932;-62
2022/05/14 03:21:33;;;;;;;;;;;10.50;92.60;;;;;;5085170;28;19931;-63
2022/05/14 03:23:59;;;;;;;;;;;10.50;92.80;;;;;;5095642;28;19920;-64
2022/05/14 03:26:24;;;;;;;;;;;10.40;93.30;;;;;;5083796;28;19927;-63
2022/05/14 03:28:50;;;;;;;;;;;10.40;92.60;;;;;;5084278;28;19959;-63
2022/05/14 03:31:15;;;;;;;;;;;10.30;92.20;;;;;;5080241;28;19927;-62
2022/05/14 03:33:41;;;;;;;;;;;10.30;94.30;;;;;;5080401;28;19920;-64
2022/05/14 03:36:07;;;;;;;;;;;10.30;93.90;;;;;;5078951;28;19928;-63
2022/05/14 03:38:32;;;;;;;;;;;10.30;93.70;;;;;;5083564;28;19943;-63
2022/05/14 03:40:58;;;;;;;;;;;10.30;93.90;;;;;;5071299;28;20073;-64
2022/05/14 03:43:23;;;;;;;;;;;10.30;94.30;;;;;;5081544;28;20356;-63
2022/05/14 03:45:49;;;;;;;;;;;10.30;94.40;;;;;;5084331;28;21701;-63
2022/05/14 03:48:14;;;;;;;;;;;10.30;94.30;;;;;;5081877;28;19951;-62
2022/05/14 03:50:40;;;;;;;;;;;10.30;94.00;;;;;;5082468;28;20429;-62
2022/05/14 03:53:05;;;;;;;;;;;10.30;94.30;;;;;;5084928;28;19955;-63
2022/05/14 03:55:31;;;;;;;;;;;10.40;94.90;;;;;;5084999;28;19928;-62
2022/05/14 03:57:56;;;;;;;;;;;10.40;95.10;;;;;;5084213;28;20297;-63
2022/05/14 04:00:22;;;;;;;;;;;10.40;95.30;;;;;;5083566;28;19920;-64
2022/05/14 04:02:47;;;;;;;;;;;10.40;94.90;;;;;;5084177;28;19935;-62
2022/05/14 04:05:14;;;;;;;;;;;10.40;94.90;;;;;;5089005;28;19959;-63
2022/05/14 04:07:43;;;;;;;;;;;10.40;95.10;;;;;;5087510;28;19924;-62
2022/05/14 04:10:12;;;;;;;;;;;10.40;95.20;;;;;;5074107;28;19978;-63
2022/05/14 04:12:38;;;;;;;;;;;10.40;95.00;;;;;;5086988;28;19920;-64
2022/05/14 04:15:03;;;;;;;;;;;10.40;94.70;;;;;;5078679;28;19967;-62
2022/05/14 04:17:29;;;;;;;;;;;10.50;94.90;;;;;;5088108;28;19978;-63
2022/05/14 04:19:54;;;;;;;;;;;10.50;95.50;;;;;;5080226;28;19924;-64
2022/05/14 04:22:20;;;;;;;;;;;10.60;95.20;;;;;;5072617;28;19928;-64
2022/05/14 04:24:46;;;;;;;;;;;10.60;95.30;;;;;;5084347;28;19977;-63
2022/05/14 04:27:11;;;;;;;;;;;10.70;95.40;;;;;;5076744;28;19968;-63
2022/05/14 04:29:36;;;;;;;;;;;10.80;95.10;;;;;;5079680;28;20015;-62
2022/05/14 04:32:02;;;;;;;;;;;10.80;95.70;;;;;;5075976;28;19920;-63
2022/05/14 04:34:27;;;;;;;;;;;10.90;95.40;;;;;;5081754;28;19924;-62
2022/05/14 04:36:55;;;;;;;;;;;11.00;95.90;;;;;;5080828;28;20379;-63
2022/05/14 04:39:31;;;;;;;;;;;11.00;95.50;;;;;;5082264;28;19924;-63
2022/05/14 04:42:00;;;;;;;;;;;11.00;95.50;;;;;;5082087;28;19942;-63
2022/05/14 04:44:30;;;;;;;;;;;11.10;95.60;;;;;;5089547;28;19924;-63
2022/05/14 04:46:56;;;;;;;;;;;11.10;95.60;;;;;;5083163;28;20321;-64
2022/05/14 04:49:22;;;;;;;;;;;11.10;95.40;;;;;;5088415;28;19920;-63
2022/05/14 04:51:47;;;;;;;;;;;11.10;95.50;;;;;;5075799;28;20295;-63
2022/05/14 04:54:13;;;;;;;;;;;11.10;95.60;;;;;;5092160;28;19931;-63
2022/05/14 04:56:39;;;;;;;;;;;11.10;96.10;;;;;;5083184;28;19923;-63
2022/05/14 04:59:04;;;;;;;;;;;11.10;95.90;;;;;;5088690;28;19942;-65
2022/05/14 05:01:30;;;;;;;;;;;11.10;96.30;;;;;;5087114;28;19924;-64
2022/05/14 05:03:57;;;;;;;;;;;11.10;96.30;;;;;;5084952;28;19927;-62
2022/05/14 05:06:23;;;;;;;;;;;11.20;96.60;;;;;;5085838;28;19920;-64
2022/05/14 05:08:51;;;;;;;;;;;11.20;96.00;;;;;;5085172;28;19924;-63
2022/05/14 05:11:20;;;;;;;;;;;11.30;96.10;;;;;;5089027;28;20079;-63
2022/05/14 05:13:45;;;;;;;;;;;11.40;96.60;;;;;;5084315;28;20279;-63
2022/05/14 05:16:11;;;;;;;;;;;11.50;96.30;;;;;;5088770;28;19920;-64
2022/05/14 05:18:37;;;;;;;;;;;11.60;96.10;;;;;;5081084;28;20419;-62
2022/05/14 05:21:02;;;;;;;;;;;11.70;95.90;;;;;;5080016;28;19925;-64
2022/05/14 05:23:28;;;;;;;;;;;11.70;95.50;;;;;;5085234;28;19927;-63
2022/05/14 05:25:54;;;;;;;;;;;11.70;95.50;;;;;;5088769;28;19927;-63
2022/05/14 05:28:20;;;;;;;;;;;11.70;96.40;;;;;;5082783;28;19927;-63
2022/05/14 05:30:46;;;;;;;;;;;11.80;95.60;;;;;;5079950;28;19939;-64
2022/05/14 05:33:12;;;;;;;;;;;12.00;95.80;;;;;;5084922;28;20011;-64
2022/05/14 05:35:38;;;;;;;;;;;12.10;95.30;;;;;;5081925;28;19924;-64
2022/05/14 05:38:03;;;;;;;;;;;12.30;94.90;;;;;;5078603;28;19920;-64
2022/05/14 05:40:29;;;;;;;;;;;12.50;94.30;;;;;;5080390;28;19920;-65
2022/05/14 05:42:54;;;;;;;;;;;12.60;94.40;;;;;;5080137;28;20039;-63
2022/05/14 05:45:20;;;;;;;;;;;12.80;94.00;;;;;;5073205;28;19920;-64
2022/05/14 05:47:45;;;;;;;;;;;12.90;93.60;;;;;;5075335;28;20264;-63
2022/05/14 05:50:12;;;;;;;;;;;13.10;93.30;;;;;;5079552;28;19936;-63
2022/05/14 05:52:37;;;;;;;;;;;13.20;92.70;;;;;;5074370;28;20288;-64
2022/05/14 05:57:47;;;;;;;;;;;13.30;92.10;;;;;;5081418;28;19927;-63
2022/05/14 06:00:18;;;;;;;;;;;13.40;91.90;;;;;;5076463;28;19928;-65
2022/05/14 06:02:44;;;;;;;;;;;13.40;91.50;;;;;;5076925;28;20369;-64
2022/05/14 06:05:10;;;;;;;;;;;13.50;91.40;;;;;;5074961;28;19951;-64
2022/05/14 06:07:36;;;;;;;;;;;13.40;91.10;;;;;;5078682;28;19920;-63
2022/05/14 06:10:02;;;;;;;;;;;13.40;90.90;;;;;;5075115;28;19920;-63
2022/05/14 06:12:28;;;;;;;;;;;13.40;91.00;;;;;;5071187;28;20434;-63
2022/05/14 06:14:53;;;;;;;;;;;13.30;91.00;;;;;;5078031;28;20114;-64
2022/05/14 06:17:19;;;;;;;;;;;13.30;91.00;;;;;;5086118;28;20630;-63
2022/05/14 06:19:44;;;;;;;;;;;13.20;91.10;;;;;;5083324;28;20278;-64
2022/05/14 06:22:10;;;;;;;;;;;13.20;91.10;;;;;;5079207;28;19928;-63
2022/05/14 06:24:36;;;;;;;;;;;13.50;91.00;;;;;;5078146;28;20746;-64
2022/05/14 06:27:01;;;;;;;;;;;13.80;90.50;;;;;;5092225;28;19920;-64
2022/05/14 06:29:27;;;;;;;;;;;14.10;89.30;;;;;;5084577;28;19920;-64
2022/05/14 06:31:52;;;;;;;;;;;14.30;88.50;;;;;;5087621;28;20162;-62
2022/05/14 06:34:18;;;;;;;;;;;14.70;87.00;;;;;;5082678;28;19931;-65
2022/05/14 06:36:43;;;;;;;;;;;15.00;84.90;;;;;;5083402;28;19935;-64
2022/05/14 06:39:09;;;;;;;;;;;15.20;83.70;;;;;;5085732;28;20291;-65
2022/05/14 06:41:34;;;;;;;;;;;15.50;82.30;;;;;;5077663;28;19920;-66
2022/05/14 06:43:59;;;;;;;;;;;15.70;81.90;;;;;;5092104;28;19920;-66
2022/05/14 06:46:25;;;;;;;;;;;16.00;80.50;;;;;;5089480;28;20559;-64
2022/05/14 06:48:50;;;;;;;;;;;16.30;78.90;;;;;;5091160;28;19920;-64
2022/05/14 06:51:18;;;;;;;;;;;16.60;78.00;;;;;;5086421;28;20367;-65
2022/05/14 06:53:43;;;;;;;;;;;16.80;73.10;;;;;;5091236;28;20290;-65
2022/05/14 06:56:10;;;;;;;;;;;16.90;75.00;;;;;;5090123;28;19928;-65
2022/05/14 06:58:37;;;;;;;;;;;17.20;73.80;;;;;;5087638;28;19939;-65
2022/05/14 07:01:03;;;;;;;;;;;17.30;72.30;;;;;;5088887;28;19965;-65
2022/05/14 07:08:57;;;;;;;;;;;18.20;67.60;;;;;;5081385;28;19920;-65
2022/05/14 07:11:22;;;;;;;;;;;18.40;67.10;;;;;;5089782;28;19920;-65
2022/05/14 07:13:50;;;;;;;;;;;18.60;67.20;;;;;;5090049;28;20012;-65
2022/05/14 07:16:15;;;;;;;;;;;18.70;66.40;;;;;;5078252;28;20344;-65
2022/05/14 07:18:40;;;;;;;;;;;19.00;63.80;;;;;;5091235;28;19967;-65
2022/05/14 07:21:06;;;;;;;;;;;19.00;63.70;;;;;;5090114;28;19924;-66
2022/05/14 07:23:31;;;;;;;;;;;19.00;64.00;;;;;;5088518;28;19984;-66
2022/05/14 07:26:01;;;;;;;;;;;19.20;63.70;;;;;;5088376;28;20606;-65
2022/05/14 07:28:26;;;;;;;;;;;19.20;63.60;;;;;;5088627;28;19973;-65
2022/05/14 07:30:52;;;;;;;;;;;19.20;62.10;;;;;;5090721;28;19928;-65
2022/05/14 07:33:18;;;;;;;;;;;19.10;62.30;;;;;;5089955;28;19927;-66
2022/05/14 07:35:43;;;;;;;;;;;19.30;59.90;;;;;;5089340;28;19924;-66
2022/05/14 07:38:09;;;;;;;;;;;19.50;60.60;;;;;;5090655;28;19977;-65
2022/05/14 07:40:36;;;;;;;;;;;19.70;58.20;;;;;;5090783;28;19966;-65
2022/05/14 07:43:07;;;;;;;;;;;20.00;58.70;;;;;;5090317;28;20620;-66
2022/05/14 07:45:35;;;;;;;;;;;20.10;56.80;;;;;;5091891;28;19921;-65
2022/05/14 07:48:02;;;;;;;;;;;20.30;57.00;;;;;;5090288;28;19974;-66
2022/05/14 07:50:28;;;;;;;;;;;20.50;55.30;;;;;;5089691;28;19924;-66
2022/05/14 07:52:53;;;;;;;;;;;20.50;56.10;;;;;;5091462;28;20020;-65
2022/05/14 07:55:19;;;;;;;;;;;20.70;55.70;;;;;;5090528;28;19932;-66
2022/05/14 07:57:44;;;;;;;;;;;21.00;55.00;;;;;;5091217;28;19953;-66
2022/05/14 08:00:11;;;;;;;;;;;21.20;53.80;;;;;;5090642;28;19977;-66
2022/05/14 08:02:36;;;;;;;;;;;21.50;55.60;;;;;;5091493;28;19987;-66
2022/05/14 08:05:03;;;;;;;;;;;21.60;54.00;;;;;;5088233;28;19986;-65
2022/05/14 08:07:29;;;;;;;;;;;21.80;52.70;;;;;;5088805;28;19960;-66
2022/05/14 08:09:54;;;;;;;;;;;22.00;51.70;;;;;;5091005;28;19971;-66
2022/05/14 08:12:20;;;;;;;;;;;22.20;53.50;;;;;;5089086;28;19924;-66
2022/05/14 08:14:45;;;;;;;;;;;22.10;52.50;;;;;;5091240;28;19924;-66
2022/05/14 08:17:11;;;;;;;;;;;22.20;49.40;;;;;;5093911;28;19920;-66
2022/05/14 08:19:37;;;;;;;;;;;22.50;52.50;;;;;;5086697;28;19936;-66
2022/05/14 08:24:48;;;;;;;;;;;22.90;50.70;;;;;;5094249;28;20340;-66
2022/05/14 08:27:13;;;;;;;;;;;23.20;48.20;;;;;;5093736;28;19928;-66
2022/05/14 08:29:39;;;;;;;;;;;23.30;46.50;;;;;;5087267;28;19925;-67
2022/05/14 08:32:04;;;;;;;;;;;23.40;49.30;;;;;;5074813;28;20482;-66
2022/05/14 08:34:30;;;;;;;;;;;23.80;46.50;;;;;;5088046;28;19931;-67
2022/05/14 08:36:56;;;;;;;;;;;23.90;47.00;;;;;;5082470;28;19920;-66
2022/05/14 08:39:21;;;;;;;;;;;24.40;44.80;;;;;;5095104;28;19924;-67
2022/05/14 08:41:48;;;;;;;;;;;24.60;44.40;;;;;;5093264;28;19920;-66
2022/05/14 08:44:15;;;;;;;;;;;24.10;40.20;;;;;;5094263;28;20057;-65
2022/05/14 08:46:42;;;;;;;;;;;23.20;42.00;;;;;;5094344;28;20416;-66
2022/05/14 08:49:19;;;;;;;;;;;24.20;44.10;;;;;;5093204;28;19920;-66
2022/05/14 08:51:46;;;;;;;;;;;23.90;43.40;;;;;;5094596;28;19943;-66
2022/05/14 08:54:12;;;;;;;;;;;23.40;43.50;;;;;;5094618;28;19924;-66
2022/05/14 08:56:43;;;;;;;;;;;23.10;43.70;;;;;;5087006;28;19920;-66
2022/05/14 08:59:28;;;;;;;;;;;22.80;43.70;;;;;;5092930;28;19931;-66
2022/05/14 09:01:58;;;;;;;;;;;23.40;46.50;;;;;;5083744;28;19928;-66
2022/05/14 09:04:24;;;;;;;;;;;23.50;44.00;;;;;;5093171;28;19931;-66
2022/05/14 09:06:50;;;;;;;;;;;23.50;44.80;;;;;;5093961;28;20379;-65
2022/05/14 09:09:16;;;;;;;;;;;23.10;46.70;;;;;;5092054;28;19924;-65
2022/05/14 09:11:42;;;;;;;;;;;22.60;45.20;;;;;;5093954;28;20270;-66
2022/05/14 09:14:23;;;;;;;;;;;23.20;44.70;;;;;;5086601;28;19929;-66
2022/05/14 09:16:51;;;;;;;;;;;23.50;45.10;;;;;;5091830;28;20630;-65
2022/05/14 09:19:18;;;;;;;;;;;23.00;44.00;;;;;;5085711;28;19989;-66
2022/05/14 09:21:51;;;;;;;;;;;22.50;45.80;;;;;;5072314;28;19920;-65
2022/05/14 09:24:24;;;;;;;;;;;22.20;46.60;;;;;;5074991;28;19943;-65
2022/05/14 09:26:50;;;;;;;;;;;22.60;46.60;;;;;;5072486;28;20660;-65
2022/05/14 09:29:34;;;;;;;;;;;23.80;43.10;;;;;;5091357;28;19920;-66
2022/05/14 09:32:01;;;;;;;;;;;24.50;41.40;;;;;;5091122;28;20002;-67
2022/05/14 09:34:28;;;;;;;;;;;24.20;41.30;;;;;;5083851;28;19966;-66
2022/05/14 09:36:59;;;;;;;;;;;23.60;42.80;;;;;;5073671;28;19970;-66
2022/05/14 09:39:24;;;;;;;;;;;23.00;43.70;;;;;;5090013;28;20291;-65
2022/05/14 09:41:55;;;;;;;;;;;22.50;45.60;;;;;;5091772;28;19931;-65
2022/05/14 09:44:44;;;;;;;;;;;22.20;45.00;;;;;;5093844;28;19924;-65
2022/05/14 09:47:15;;;;;;;;;;;21.80;47.00;;;;;;5067231;28;20394;-65
2022/05/14 09:49:42;;;;;;;;;;;21.50;47.80;;;;;;5084480;28;19924;-66
2022/05/14 09:52:09;;;;;;;;;;;22.30;48.30;;;;;;5082390;28;20415;-65
2022/05/14 09:54:41;;;;;;;;;;;23.70;46.80;;;;;;5072019;28;19947;-66
2022/05/14 09:57:25;;;;;;;;;;;25.10;43.80;;;;;;5093548;28;20295;-66
2022/05/14 10:00:23;;;;;;;;;;;26.00;38.00;;;;;;5091239;28;19927;-66
2022/05/14 10:03:08;;;;;;;;;;;25.60;39.00;;;;;;5048251;28;19925;-65
2022/05/14 10:05:34;;;;;;;;;;;25.70;39.60;;;;;;5080844;28;20428;-66
2022/05/14 10:08:09;;;;;;;;;;;26.60;41.00;;;;;;5090464;28;19928;-65
2022/05/14 10:10:40;;;;;;;;;;;27.70;37.10;;;;;;5091659;28;19920;-66
2022/05/14 10:13:18;;;;;;;;;;;28.40;33.90;;;;;;5093003;28;19920;-66
2022/05/14 10:15:53;;;;;;;;;;;28.90;33.00;;;;;;5084116;28;20015;-65
2022/05/14 10:18:18;;;;;;;;;;;28.40;32.60;;;;;;5078854;28;19966;-65
2022/05/14 10:20:44;;;;;;;;;;;27.60;33.80;;;;;;5076169;28;19932;-66
2022/05/14 10:29:06;;;;;;;;;;;24.80;37.00;;;;;;5070324;28;20011;-66
2022/05/14 10:31:36;;;;;;;;;;;25.40;38.00;;;;;;5070012;28;20011;-66
2022/05/14 10:34:05;;;;;;;;;;;25.30;38.30;;;;;;5086268;28;20426;-66
2022/05/14 10:36:36;;;;;;;;;;;26.40;37.20;;;;;;5083162;28;19920;-66
2022/05/14 10:39:06;;;;;;;;;;;26.10;37.40;;;;;;5076253;28;19928;-66
2022/05/14 10:41:38;;;;;;;;;;;25.60;37.70;;;;;;5079869;28;19924;-66
2022/05/14 10:44:12;;;;;;;;;;;25.10;37.70;;;;;;5077697;28;20364;-66
2022/05/14 10:46:40;;;;;;;;;;;24.70;37.70;;;;;;5087499;28;19920;-66
2022/05/14 10:49:20;;;;;;;;;;;24.60;38.70;;;;;;5091995;28;20005;-66
2022/05/14 10:51:47;;;;;;;;;;;24.50;40.00;;;;;;5086577;28;19929;-65
2022/05/14 10:54:18;;;;;;;;;;;24.40;40.00;;;;;;5071783;28;19935;-66
2022/05/14 10:56:57;;;;;;;;;;;24.40;39.50;;;;;;5068902;28;19956;-65
2022/05/14 10:59:38;;;;;;;;;;;24.20;38.70;;;;;;5073722;28;19992;-65
2022/05/14 11:02:03;;;;;;;;;;;23.40;39.70;;;;;;5082067;28;20036;-65
2022/05/14 11:04:42;;;;;;;;;;;23.50;39.50;;;;;;5079059;28;20353;-66
2022/05/14 11:07:14;;;;;;;;;;;23.50;39.90;;;;;;5071060;28;19921;-65
2022/05/14 11:09:45;;;;;;;;;;;23.20;40.40;;;;;;5068014;28;19928;-66
2022/05/14 11:12:13;;;;;;;;;;;22.90;41.20;;;;;;5071414;28;19921;-65
2022/05/14 11:14:58;;;;;;;;;;;22.80;41.00;;;;;;5072211;28;19946;-65
2022/05/14 11:17:28;;;;;;;;;;;22.30;42.10;;;;;;5069292;28;19931;-66
2022/05/14 11:20:03;;;;;;;;;;;22.30;42.80;;;;;;5089124;28;19924;-65
2022/05/14 11:22:39;;;;;;;;;;;22.40;43.30;;;;;;5081515;28;19920;-65
2022/05/14 11:25:13;;;;;;;;;;;22.40;43.50;;;;;;5086214;28;19967;-66
2022/05/14 11:27:38;;;;;;;;;;;22.50;43.70;;;;;;5086315;28;20416;-66
2022/05/14 11:30:06;;;;;;;;;;;22.40;43.50;;;;;;5071604;28;19928;-65
2022/05/14 11:32:45;;;;;;;;;;;22.60;43.50;;;;;;5089974;28;19920;-66
2022/05/14 11:35:12;;;;;;;;;;;23.20;42.80;;;;;;5088089;28;20038;-65
2022/05/14 11:37:39;;;;;;;;;;;22.90;42.00;;;;;;5090363;28;19966;-66
2022/05/14 11:40:20;;;;;;;;;;;22.90;42.50;;;;;;5088571;28;19923;-65
2022/05/14 11:42:47;;;;;;;;;;;22.80;42.50;;;;;;5084750;28;20003;-65
2022/05/14 11:45:13;;;;;;;;;;;22.60;42.70;;;;;;5091484;28;19920;-65
2022/05/14 11:47:54;;;;;;;;;;;22.80;43.20;;;;;;5089911;28;19924;-65
2022/05/14 11:50:21;;;;;;;;;;;23.00;43.30;;;;;;5088890;28;20608;-65
2022/05/14 11:53:00;;;;;;;;;;;23.30;43.00;;;;;;5075180;28;19925;-65
2022/05/14 11:55:34;;;;;;;;;;;23.40;41.60;;;;;;5086732;28;20249;-65
2022/05/14 11:58:05;;;;;;;;;;;23.50;41.60;;;;;;5071996;28;20027;-65
2022/05/14 12:00:32;;;;;;;;;;;23.30;41.30;;;;;;5085979;28;19945;-65
2022/05/14 12:03:16;;;;;;;;;;;23.40;42.00;;;;;;5089639;28;19920;-65
2022/05/14 12:05:49;;;;;;;;;;;23.50;41.50;;;;;;5087722;28;19966;-65
2022/05/14 12:08:15;;;;;;;;;;;23.50;41.20;;;;;;5090684;28;19927;-65
2022/05/14 12:10:47;;;;;;;;;;;23.50;41.20;;;;;;5089600;28;20007;-65
2022/05/14 12:13:32;;;;;;;;;;;23.40;41.40;;;;;;5091122;28;19920;-65
2022/05/14 12:15:58;;;;;;;;;;;23.30;41.40;;;;;;5090133;28;19931;-65
2022/05/14 12:18:24;;;;;;;;;;;23.30;40.50;;;;;;5091736;28;19924;-65
2022/05/14 12:21:08;;;;;;;;;;;23.30;39.10;;;;;;5090059;28;19924;-65
2022/05/14 12:23:37;;;;;;;;;;;23.30;40.50;;;;;;5088973;28;19946;-65
2022/05/14 12:26:07;;;;;;;;;;;23.50;40.70;;;;;;5089288;28;20383;-66
2022/05/14 12:28:34;;;;;;;;;;;24.50;40.30;;;;;;5087467;28;19926;-65
2022/05/14 12:33:50;;;;;;;;;;;26.70;38.20;;;;;;5090273;28;19931;-65
2022/05/14 12:36:16;;;;;;;;;;;27.30;33.70;;;;;;5069934;28;19927;-65
2022/05/14 12:38:41;;;;;;;;;;;26.70;33.10;;;;;;5071684;28;20003;-65
2022/05/14 12:41:14;;;;;;;;;;;27.00;32.70;;;;;;5088614;28;19931;-65
2022/05/14 12:43:42;;;;;;;;;;;26.30;34.20;;;;;;5089966;28;19973;-66
2022/05/14 12:46:09;;;;;;;;;;;25.90;35.40;;;;;;5079079;28;19936;-66
2022/05/14 12:48:54;;;;;;;;;;;25.50;35.90;;;;;;5070154;28;19972;-65
2022/05/14 12:51:21;;;;;;;;;;;25.10;36.20;;;;;;5054739;28;20377;-66
2022/05/14 12:53:47;;;;;;;;;;;24.60;37.70;;;;;;5070755;28;19924;-65
2022/05/14 12:56:14;;;;;;;;;;;24.20;38.40;;;;;;5083177;28;19931;-65
2022/05/14 12:58:40;;;;;;;;;;;24.00;38.80;;;;;;5089837;28;19924;-64
2022/05/14 13:01:06;;;;;;;;;;;23.90;39.40;;;;;;5070352;28;20366;-65
2022/05/14 13:03:52;;;;;;;;;;;23.70;40.00;;;;;;5080402;28;20666;-66
2022/05/14 13:06:26;;;;;;;;;;;23.60;39.70;;;;;;5078484;28;19924;-64
2022/05/14 13:08:57;;;;;;;;;;;23.50;39.70;;;;;;5075417;28;19959;-65
2022/05/14 13:11:24;;;;;;;;;;;23.30;39.90;;;;;;5079576;28;19930;-66
2022/05/14 13:13:51;;;;;;;;;;;23.20;40.70;;;;;;5084939;28;19928;-65
2022/05/14 13:16:16;;;;;;;;;;;23.10;40.30;;;;;;5073705;28;19963;-65
2022/05/14 13:18:49;;;;;;;;;;;23.00;40.50;;;;;;5075397;28;20342;-66
2022/05/14 13:21:25;;;;;;;;;;;23.10;40.70;;;;;;5089949;28;19942;-65
2022/05/14 13:24:14;;;;;;;;;;;23.00;40.90;;;;;;5078098;28;20401;-65
2022/05/14 13:26:39;;;;;;;;;;;23.10;40.90;;;;;;5083019;28;19928;-64
2022/05/14 13:29:13;;;;;;;;;;;23.00;41.20;;;;;;5092838;28;19920;-66
2022/05/14 13:31:38;;;;;;;;;;;23.10;41.00;;;;;;5093728;28;19920;-64
2022/05/14 13:37:09;;;;;;;;;;;23.10;40.80;;;;;;5082960;28;19921;-65
2022/05/14 13:39:49;;;;;;;;;;;23.40;40.80;;;;;;5090706;28;19939;-65
2022/05/14 13:42:24;;;;;;;;;;;23.70;39.90;;;;;;5092478;28;19920;-66
2022/05/14 13:44:51;;;;;;;;;;;23.80;39.80;;;;;;5054704;28;19952;-65
2022/05/14 13:47:19;;;;;;;;;;;23.90;39.40;;;;;;5076259;28;20272;-64
2022/05/14 13:49:50;;;;;;;;;;;23.90;39.10;;;;;;5098983;28;19920;-66
2022/05/14 13:52:23;;;;;;;;;;;23.60;39.40;;;;;;5087240;28;19965;-64
2022/05/14 13:54:59;;;;;;;;;;;23.40;39.80;;;;;;5081712;28;20303;-64
2022/05/14 13:57:25;;;;;;;;;;;23.20;40.10;;;;;;5082728;28;20429;-65
2022/05/14 14:00:02;;;;;;;;;;;22.90;40.50;;;;;;5088308;28;19924;-65
2022/05/14 14:02:28;;;;;;;;;;;22.90;41.20;;;;;;5092194;28;19920;-65
2022/05/14 14:05:02;;;;;;;;;;;22.90;40.70;;;;;;5089648;28;19924;-65
2022/05/14 14:07:30;;;;;;;;;;;23.20;40.80;;;;;;5084693;28;19920;-65
2022/05/14 14:09:56;;;;;;;;;;;23.50;40.40;;;;;;5078795;28;20020;-65
2022/05/14 14:12:24;;;;;;;;;;;23.70;40.20;;;;;;5086807;28;19969;-66
2022/05/14 14:14:50;;;;;;;;;;;23.70;39.60;;;;;;5071223;28;20299;-65
2022/05/14 14:17:16;;;;;;;;;;;23.80;39.70;;;;;;5074364;28;19931;-65
2022/05/14 14:19:41;;;;;;;;;;;23.90;38.90;;;;;;5063281;28;19924;-65
2022/05/14 14:22:08;;;;;;;;;;;23.90;39.10;;;;;;5086236;28;19927;-66
2022/05/14 14:24:34;;;;;;;;;;;24.20;39.10;;;;;;5088231;28;19920;-65
2022/05/14 14:27:00;;;;;;;;;;;24.30;38.70;;;;;;5091998;28;19924;-64
2022/05/14 14:29:26;;;;;;;;;;;24.30;38.50;;;;;;5091064;28;19924;-65
2022/05/14 14:31:52;;;;;;;;;;;24.30;38.70;;;;;;5076762;28;19927;-64
2022/05/14 14:34:17;;;;;;;;;;;24.20;39.10;;;;;;5082389;28;19924;-64
2022/05/14 14:36:43;;;;;;;;;;;24.20;38.50;;;;;;5092565;28;19920;-65
2022/05/14 14:39:09;;;;;;;;;;;24.10;38.90;;;;;;5089779;28;19931;-65
2022/05/14 14:41:35;;;;;;;;;;;24.00;39.00;;;;;;5089445;28;19928;-66
2022/05/14 14:44:02;;;;;;;;;;;23.70;39.00;;;;;;5092205;28;19973;-66
2022/05/14 14:46:28;;;;;;;;;;;23.80;39.40;;;;;;5089400;28;19927;-65
2022/05/14 14:48:54;;;;;;;;;;;23.80;39.40;;;;;;5081838;28;20014;-64